sensor_id;sensor_type;location;lat;lon;timestamp;temperature;humidity
6379;DHT22;3222;48.858;10.128;2024-01-06T00:02:08;5.70;99.90
6379;DHT22;3222;48.858;10.128;2024-01-06T00:04:34;5.70;99.90
6379;DHT22;3222;48.858;10.128;2024-01-06T00:06:59;5.70;99.90
6379;DHT22;3222;48.858;10.128;2024-01-06T00:09:25;5.70;99.90
6379;DHT22;3222;48.858;10.128;2024-01-06T00:11:51;5.60;99.90
6379;DHT22;3222;48.858;10.128;2024-01-06T00:14:16;5.60;99.90
6379;DHT22;3222;48.858;10.128;2024-01-06T00:16:42;5.60;99.90
6379;DHT22;3222;48.858;10.128;2024-01-06T00:19:08;5.60;99.90
6379;DHT22;3222;48.858;10.128;2024-01-06T00:21:33;5.50;99.90
6379;DHT22;3222;48.858;10.128;2024-01-06T00:23:59;5.50;99.90
6379;DHT22;3222;48.858;10.128;2024-01-06T00:26:25;5.50;99.90
6379;DHT22;3222;48.858;10.128;2024-01-06T00:28:51;5.50;99.90
6379;DHT22;3222;48.858;10.128;2024-01-06T00:31:17;5.50;99.90
6379;DHT22;3222;48.858;10.128;2024-01-06T00:33:43;5.50;99.90
6379;DHT22;3222;48.858;10.128;2024-01-06T00:36:09;5.50;99.90
6379;DHT22;3222;48.858;10.128;2024-01-06T00:38:35;5.50;99.90
6379;DHT22;3222;48.858;10.128;2024-01-06T00:41:01;5.50;99.90
6379;DHT22;3222;48.858;10.128;2024-01-06T00:43:26;5.40;99.90
6379;DHT22;3222;48.858;10.128;2024-01-06T00:45:52;5.50;99.90
6379;DHT22;3222;48.858;10.128;2024-01-06T00:48:18;5.40;99.90
6379;DHT22;3222;48.858;10.128;2024-01-06T00:50:44;5.40;99.90
6379;DHT22;3222;48.858;10.128;2024-01-06T00:53:11;5.40;99.90
6379;DHT22;3222;48.858;10.128;2024-01-06T00:55:37;5.40;99.90
6379;DHT22;3222;48.858;10.128;2024-01-06T00:58:02;5.40;99.90
6379;DHT22;3222;48.858;10.128;2024-01-06T01:00:28;5.30;99.90
6379;DHT22;3222;48.858;10.128;2024-01-06T01:02:54;5.30;99.90
6379;DHT22;3222;48.858;10.128;2024-01-06T01:05:19;5.30;99.90
6379;DHT22;3222;48.858;10.128;2024-01-06T01:07:45;5.40;99.90
6379;DHT22;3222;48.858;10.128;2024-01-06T01:10:10;5.40;99.90
6379;DHT22;3222;48.858;10.128;2024-01-06T01:12:36;5.30;99.90
6379;DHT22;3222;48.858;10.128;2024-01-06T01:15:02;5.30;99.90
6379;DHT22;3222;48.858;10.128;2024-01-06T01:17:28;5.40;99.90
6379;DHT22;3222;48.858;10.128;2024-01-06T01:19:55;5.40;99.90
6379;DHT22;3222;48.858;10.128;2024-01-06T01:22:20;5.50;99.90
6379;DHT22;3222;48.858;10.128;2024-01-06T01:24:47;5.50;99.90
6379;DHT22;3222;48.858;10.128;2024-01-06T01:27:13;5.40;99.90
6379;DHT22;3222;48.858;10.128;2024-01-06T01:29:39;5.40;99.90
6379;DHT22;3222;48.858;10.128;2024-01-06T01:32:05;5.40;99.90
6379;DHT22;3222;48.858;10.128;2024-01-06T01:34:31;5.40;99.90
6379;DHT22;3222;48.858;10.128;2024-01-06T01:36:57;5.40;99.90
6379;DHT22;3222;48.858;10.128;2024-01-06T01:39:22;5.30;99.90
6379;DHT22;3222;48.858;10.128;2024-01-06T01:41:48;5.30;99.90
6379;DHT22;3222;48.858;10.128;2024-01-06T01:44:14;5.30;99.90
6379;DHT22;3222;48.858;10.128;2024-01-06T01:46:40;5.30;99.90
6379;DHT22;3222;48.858;10.128;2024-01-06T01:49:06;5.30;99.90
6379;DHT22;3222;48.858;10.128;2024-01-06T01:51:34;5.30;99.90
6379;DHT22;3222;48.858;10.128;2024-01-06T01:54:01;5.40;99.90
6379;DHT22;3222;48.858;10.128;2024-01-06T01:56:28;5.50;99.90
6379;DHT22;3222;48.858;10.128;2024-01-06T01:58:54;5.50;99.90
6379;DHT22;3222;48.858;10.128;2024-01-06T02:01:20;5.40;99.90
6379;DHT22;3222;48.858;10.128;2024-01-06T02:03:46;5.40;99.90
6379;DHT22;3222;48.858;10.128;2024-01-06T02:06:12;5.40;99.90
6379;DHT22;3222;48.858;10.128;2024-01-06T02:08:38;5.50;99.90
6379;DHT22;3222;48.858;10.128;2024-01-06T02:11:04;5.40;99.90
6379;DHT22;3222;48.858;10.128;2024-01-06T02:13:37;5.50;99.90
6379;DHT22;3222;48.858;10.128;2024-01-06T02:16:04;5.50;99.90
6379;DHT22;3222;48.858;10.128;2024-01-06T02:18:30;5.40;99.90
6379;DHT22;3222;48.858;10.128;2024-01-06T02:21:01;5.40;99.90
6379;DHT22;3222;48.858;10.128;2024-01-06T02:23:28;5.40;99.90
6379;DHT22;3222;48.858;10.128;2024-01-06T02:25:54;5.40;99.90
6379;DHT22;3222;48.858;10.128;2024-01-06T02:28:20;5.50;99.90
6379;DHT22;3222;48.858;10.128;2024-01-06T02:30:46;5.50;99.90
6379;DHT22;3222;48.858;10.128;2024-01-06T02:33:11;5.60;99.90
6379;DHT22;3222;48.858;10.128;2024-01-06T02:35:37;5.50;99.90
6379;DHT22;3222;48.858;10.128;2024-01-06T02:38:03;5.50;99.90
6379;DHT22;3222;48.858;10.128;2024-01-06T02:40:29;5.50;99.90
6379;DHT22;3222;48.858;10.128;2024-01-06T02:42:54;5.40;99.90
6379;DHT22;3222;48.858;10.128;2024-01-06T02:45:20;5.50;99.90
6379;DHT22;3222;48.858;10.128;2024-01-06T02:47:46;5.40;99.90
6379;DHT22;3222;48.858;10.128;2024-01-06T02:50:11;5.40;99.90
6379;DHT22;3222;48.858;10.128;2024-01-06T02:52:37;5.40;99.90
6379;DHT22;3222;48.858;10.128;2024-01-06T02:55:03;5.40;99.90
6379;DHT22;3222;48.858;10.128;2024-01-06T02:57:30;5.30;99.90
6379;DHT22;3222;48.858;10.128;2024-01-06T02:59:56;5.30;99.90
6379;DHT22;3222;48.858;10.128;2024-01-06T03:02:22;5.40;99.90
6379;DHT22;3222;48.858;10.128;2024-01-06T03:04:48;5.50;99.90
6379;DHT22;3222;48.858;10.128;2024-01-06T03:07:14;5.50;99.90
6379;DHT22;3222;48.858;10.128;2024-01-06T03:09:39;5.50;99.90
6379;DHT22;3222;48.858;10.128;2024-01-06T03:12:06;5.50;99.90
6379;DHT22;3222;48.858;10.128;2024-01-06T03:14:36;5.50;99.90
6379;DHT22;3222;48.858;10.128;2024-01-06T03:17:01;5.50;99.90
6379;DHT22;3222;48.858;10.128;2024-01-06T03:19:28;5.60;99.90
6379;DHT22;3222;48.858;10.128;2024-01-06T03:21:54;5.50;99.90
6379;DHT22;3222;48.858;10.128;2024-01-06T03:24:21;5.60;99.90
6379;DHT22;3222;48.858;10.128;2024-01-06T03:26:47;5.40;99.90
6379;DHT22;3222;48.858;10.128;2024-01-06T03:29:13;5.50;99.90
6379;DHT22;3222;48.858;10.128;2024-01-06T03:31:45;5.50;99.90
6379;DHT22;3222;48.858;10.128;2024-01-06T03:34:11;5.40;99.90
6379;DHT22;3222;48.858;10.128;2024-01-06T03:36:40;5.50;99.90
6379;DHT22;3222;48.858;10.128;2024-01-06T03:39:07;5.60;99.90
6379;DHT22;3222;48.858;10.128;2024-01-06T03:41:33;5.50;99.90
6379;DHT22;3222;48.858;10.128;2024-01-06T03:43:59;5.50;99.90
6379;DHT22;3222;48.858;10.128;2024-01-06T03:46:25;5.50;99.90
6379;DHT22;3222;48.858;10.128;2024-01-06T03:48:50;5.40;99.90
6379;DHT22;3222;48.858;10.128;2024-01-06T03:51:16;5.40;99.90
6379;DHT22;3222;48.858;10.128;2024-01-06T03:53:42;5.40;99.90
6379;DHT22;3222;48.858;10.128;2024-01-06T03:56:08;5.30;99.90
6379;DHT22;3222;48.858;10.128;2024-01-06T03:58:34;5.30;99.90
6379;DHT22;3222;48.858;10.128;2024-01-06T04:01:00;5.40;99.90
6379;DHT22;3222;48.858;10.128;2024-01-06T04:03:26;5.40;99.90
6379;DHT22;3222;48.858;10.128;2024-01-06T04:05:52;5.30;99.90
6379;DHT22;3222;48.858;10.128;2024-01-06T04:08:18;5.30;99.90
6379;DHT22;3222;48.858;10.128;2024-01-06T04:10:44;5.30;99.90
6379;DHT22;3222;48.858;10.128;2024-01-06T04:13:11;5.20;99.90
6379;DHT22;3222;48.858;10.128;2024-01-06T04:15:36;5.20;99.90
6379;DHT22;3222;48.858;10.128;2024-01-06T04:18:03;5.20;99.90
6379;DHT22;3222;48.858;10.128;2024-01-06T04:20:29;5.20;99.90
6379;DHT22;3222;48.858;10.128;2024-01-06T04:22:55;5.20;99.90
6379;DHT22;3222;48.858;10.128;2024-01-06T04:25:21;5.20;99.90
6379;DHT22;3222;48.858;10.128;2024-01-06T04:27:47;5.20;99.90
6379;DHT22;3222;48.858;10.128;2024-01-06T04:30:14;5.20;99.90
6379;DHT22;3222;48.858;10.128;2024-01-06T04:32:40;5.10;99.90
6379;DHT22;3222;48.858;10.128;2024-01-06T04:35:06;5.10;99.90
6379;DHT22;3222;48.858;10.128;2024-01-06T04:37:32;5.10;99.90
6379;DHT22;3222;48.858;10.128;2024-01-06T04:39:58;5.20;99.90
6379;DHT22;3222;48.858;10.128;2024-01-06T04:42:24;5.20;99.90
6379;DHT22;3222;48.858;10.128;2024-01-06T04:44:50;5.20;99.90
6379;DHT22;3222;48.858;10.128;2024-01-06T04:47:16;5.30;99.90
6379;DHT22;3222;48.858;10.128;2024-01-06T04:49:43;5.30;99.90
6379;DHT22;3222;48.858;10.128;2024-01-06T04:52:09;5.30;99.90
6379;DHT22;3222;48.858;10.128;2024-01-06T04:54:35;5.20;99.90
6379;DHT22;3222;48.858;10.128;2024-01-06T04:57:01;5.20;99.90
6379;DHT22;3222;48.858;10.128;2024-01-06T04:59:26;5.30;99.90
6379;DHT22;3222;48.858;10.128;2024-01-06T05:01:53;5.40;99.90
6379;DHT22;3222;48.858;10.128;2024-01-06T05:04:19;5.40;99.90
6379;DHT22;3222;48.858;10.128;2024-01-06T05:06:45;5.30;99.90
6379;DHT22;3222;48.858;10.128;2024-01-06T05:09:11;5.30;99.90
6379;DHT22;3222;48.858;10.128;2024-01-06T05:11:37;5.30;99.90
6379;DHT22;3222;48.858;10.128;2024-01-06T05:14:02;5.20;99.90
6379;DHT22;3222;48.858;10.128;2024-01-06T05:16:28;5.30;99.90
6379;DHT22;3222;48.858;10.128;2024-01-06T05:18:54;5.30;99.90
6379;DHT22;3222;48.858;10.128;2024-01-06T05:21:20;5.30;99.90
6379;DHT22;3222;48.858;10.128;2024-01-06T05:23:46;5.30;99.90
6379;DHT22;3222;48.858;10.128;2024-01-06T05:26:11;5.30;99.90
6379;DHT22;3222;48.858;10.128;2024-01-06T05:28:39;5.40;99.90
6379;DHT22;3222;48.858;10.128;2024-01-06T05:31:05;5.40;99.90
6379;DHT22;3222;48.858;10.128;2024-01-06T05:33:30;5.40;99.90
6379;DHT22;3222;48.858;10.128;2024-01-06T05:35:56;5.40;99.90
6379;DHT22;3222;48.858;10.128;2024-01-06T05:38:22;5.30;99.90
6379;DHT22;3222;48.858;10.128;2024-01-06T05:40:47;5.30;99.90
6379;DHT22;3222;48.858;10.128;2024-01-06T05:43:13;5.30;99.90
6379;DHT22;3222;48.858;10.128;2024-01-06T05:45:39;5.30;99.90
6379;DHT22;3222;48.858;10.128;2024-01-06T05:48:10;5.30;99.90
6379;DHT22;3222;48.858;10.128;2024-01-06T05:50:38;5.40;99.90
6379;DHT22;3222;48.858;10.128;2024-01-06T05:53:05;5.40;99.90
6379;DHT22;3222;48.858;10.128;2024-01-06T05:55:31;5.30;99.90
6379;DHT22;3222;48.858;10.128;2024-01-06T05:57:56;5.40;99.90
6379;DHT22;3222;48.858;10.128;2024-01-06T06:00:22;5.30;99.90
6379;DHT22;3222;48.858;10.128;2024-01-06T06:02:48;5.20;99.90
6379;DHT22;3222;48.858;10.128;2024-01-06T06:05:14;5.20;99.90
6379;DHT22;3222;48.858;10.128;2024-01-06T06:07:40;5.20;99.90
6379;DHT22;3222;48.858;10.128;2024-01-06T06:10:07;5.20;99.90
6379;DHT22;3222;48.858;10.128;2024-01-06T06:12:33;5.20;99.90
6379;DHT22;3222;48.858;10.128;2024-01-06T06:14:59;5.20;99.90
6379;DHT22;3222;48.858;10.128;2024-01-06T06:17:25;5.20;99.90
6379;DHT22;3222;48.858;10.128;2024-01-06T06:19:51;5.20;99.90
6379;DHT22;3222;48.858;10.128;2024-01-06T06:22:16;5.10;99.90
6379;DHT22;3222;48.858;10.128;2024-01-06T06:24:42;5.20;99.90
6379;DHT22;3222;48.858;10.128;2024-01-06T06:27:08;5.10;99.90
6379;DHT22;3222;48.858;10.128;2024-01-06T06:29:34;5.10;99.90
6379;DHT22;3222;48.858;10.128;2024-01-06T06:32:00;5.10;99.90
6379;DHT22;3222;48.858;10.128;2024-01-06T06:34:25;5.10;99.90
6379;DHT22;3222;48.858;10.128;2024-01-06T06:36:51;5.00;99.90
6379;DHT22;3222;48.858;10.128;2024-01-06T06:39:17;5.00;99.90
6379;DHT22;3222;48.858;10.128;2024-01-06T06:41:44;5.00;99.90
6379;DHT22;3222;48.858;10.128;2024-01-06T06:44:09;5.00;99.90
6379;DHT22;3222;48.858;10.128;2024-01-06T06:46:36;5.00;99.90
6379;DHT22;3222;48.858;10.128;2024-01-06T06:49:02;5.10;99.90
6379;DHT22;3222;48.858;10.128;2024-01-06T06:51:28;5.00;99.90
6379;DHT22;3222;48.858;10.128;2024-01-06T06:53:55;5.00;99.90
6379;DHT22;3222;48.858;10.128;2024-01-06T06:56:22;5.00;99.90
6379;DHT22;3222;48.858;10.128;2024-01-06T06:58:48;5.10;99.90
6379;DHT22;3222;48.858;10.128;2024-01-06T07:01:15;5.10;99.90
6379;DHT22;3222;48.858;10.128;2024-01-06T07:03:41;5.00;99.90
6379;DHT22;3222;48.858;10.128;2024-01-06T07:06:06;4.90;99.90
6379;DHT22;3222;48.858;10.128;2024-01-06T07:08:32;5.00;99.90
6379;DHT22;3222;48.858;10.128;2024-01-06T07:10:58;5.10;99.90
6379;DHT22;3222;48.858;10.128;2024-01-06T07:13:23;5.10;99.90
6379;DHT22;3222;48.858;10.128;2024-01-06T07:15:49;5.10;99.90
6379;DHT22;3222;48.858;10.128;2024-01-06T07:18:14;5.00;99.90
6379;DHT22;3222;48.858;10.128;2024-01-06T07:20:40;5.00;99.90
6379;DHT22;3222;48.858;10.128;2024-01-06T07:23:06;5.10;99.90
6379;DHT22;3222;48.858;10.128;2024-01-06T07:25:31;5.10;99.90
6379;DHT22;3222;48.858;10.128;2024-01-06T07:27:57;5.00;99.90
6379;DHT22;3222;48.858;10.128;2024-01-06T07:30:23;5.00;99.90
6379;DHT22;3222;48.858;10.128;2024-01-06T07:32:48;5.10;99.90
6379;DHT22;3222;48.858;10.128;2024-01-06T07:35:16;5.00;99.90
6379;DHT22;3222;48.858;10.128;2024-01-06T07:37:42;5.00;99.90
6379;DHT22;3222;48.858;10.128;2024-01-06T07:40:08;5.00;99.90
6379;DHT22;3222;48.858;10.128;2024-01-06T07:42:34;4.80;99.90
6379;DHT22;3222;48.858;10.128;2024-01-06T07:44:59;4.80;99.90
6379;DHT22;3222;48.858;10.128;2024-01-06T07:47:25;4.70;99.90
6379;DHT22;3222;48.858;10.128;2024-01-06T07:49:51;4.80;99.90
6379;DHT22;3222;48.858;10.128;2024-01-06T07:52:18;4.80;99.90
6379;DHT22;3222;48.858;10.128;2024-01-06T07:54:44;4.90;99.90
6379;DHT22;3222;48.858;10.128;2024-01-06T07:57:09;4.90;99.90
6379;DHT22;3222;48.858;10.128;2024-01-06T07:59:36;5.00;99.90
6379;DHT22;3222;48.858;10.128;2024-01-06T08:02:02;5.00;99.90
6379;DHT22;3222;48.858;10.128;2024-01-06T08:04:28;5.00;99.90
6379;DHT22;3222;48.858;10.128;2024-01-06T08:06:54;5.00;99.90
6379;DHT22;3222;48.858;10.128;2024-01-06T08:09:20;4.90;99.90
6379;DHT22;3222;48.858;10.128;2024-01-06T08:11:45;5.00;99.90
6379;DHT22;3222;48.858;10.128;2024-01-06T08:14:13;4.90;99.90
6379;DHT22;3222;48.858;10.128;2024-01-06T08:16:39;4.90;99.90
6379;DHT22;3222;48.858;10.128;2024-01-06T08:19:05;4.90;99.90
6379;DHT22;3222;48.858;10.128;2024-01-06T08:21:30;5.00;99.90
6379;DHT22;3222;48.858;10.128;2024-01-06T08:23:56;5.00;99.90
6379;DHT22;3222;48.858;10.128;2024-01-06T08:26:22;4.90;99.90
6379;DHT22;3222;48.858;10.128;2024-01-06T08:28:47;4.80;99.90
6379;DHT22;3222;48.858;10.128;2024-01-06T08:31:13;4.90;99.90
6379;DHT22;3222;48.858;10.128;2024-01-06T08:33:39;5.00;99.90
6379;DHT22;3222;48.858;10.128;2024-01-06T08:36:05;5.00;99.90
6379;DHT22;3222;48.858;10.128;2024-01-06T08:38:31;4.90;99.90
6379;DHT22;3222;48.858;10.128;2024-01-06T08:40:57;4.90;99.90
6379;DHT22;3222;48.858;10.128;2024-01-06T08:43:22;4.90;99.90
6379;DHT22;3222;48.858;10.128;2024-01-06T08:45:48;4.90;99.90
6379;DHT22;3222;48.858;10.128;2024-01-06T08:48:14;4.90;99.90
6379;DHT22;3222;48.858;10.128;2024-01-06T08:50:40;4.90;99.90
6379;DHT22;3222;48.858;10.128;2024-01-06T08:53:06;4.90;99.90
6379;DHT22;3222;48.858;10.128;2024-01-06T08:55:31;5.00;99.90
6379;DHT22;3222;48.858;10.128;2024-01-06T08:57:57;5.10;99.90
6379;DHT22;3222;48.858;10.128;2024-01-06T09:00:23;5.00;99.90
6379;DHT22;3222;48.858;10.128;2024-01-06T09:02:48;5.00;99.90
6379;DHT22;3222;48.858;10.128;2024-01-06T09:05:14;5.00;99.90
6379;DHT22;3222;48.858;10.128;2024-01-06T09:07:40;5.00;99.90
6379;DHT22;3222;48.858;10.128;2024-01-06T09:10:06;5.10;99.90
6379;DHT22;3222;48.858;10.128;2024-01-06T09:12:32;5.10;99.90
6379;DHT22;3222;48.858;10.128;2024-01-06T09:15:00;5.00;99.90
6379;DHT22;3222;48.858;10.128;2024-01-06T09:17:26;5.00;99.90
6379;DHT22;3222;48.858;10.128;2024-01-06T09:19:52;5.10;99.90
6379;DHT22;3222;48.858;10.128;2024-01-06T09:22:19;5.10;99.90
6379;DHT22;3222;48.858;10.128;2024-01-06T09:24:45;5.00;99.90
6379;DHT22;3222;48.858;10.128;2024-01-06T09:27:10;5.10;99.90
6379;DHT22;3222;48.858;10.128;2024-01-06T09:29:36;5.10;99.90
6379;DHT22;3222;48.858;10.128;2024-01-06T09:32:02;5.00;99.90
6379;DHT22;3222;48.858;10.128;2024-01-06T09:34:28;5.10;99.90
6379;DHT22;3222;48.858;10.128;2024-01-06T09:36:53;5.10;99.90
6379;DHT22;3222;48.858;10.128;2024-01-06T09:39:19;5.00;99.90
6379;DHT22;3222;48.858;10.128;2024-01-06T09:41:44;5.00;99.90
6379;DHT22;3222;48.858;10.128;2024-01-06T09:44:10;5.00;99.90
6379;DHT22;3222;48.858;10.128;2024-01-06T09:46:37;5.00;99.90
6379;DHT22;3222;48.858;10.128;2024-01-06T09:49:05;5.10;99.90
6379;DHT22;3222;48.858;10.128;2024-01-06T09:51:33;5.00;99.90
6379;DHT22;3222;48.858;10.128;2024-01-06T09:54:04;5.00;99.90
6379;DHT22;3222;48.858;10.128;2024-01-06T09:56:34;5.00;99.90
6379;DHT22;3222;48.858;10.128;2024-01-06T09:58:59;5.00;99.90
6379;DHT22;3222;48.858;10.128;2024-01-06T10:01:25;5.00;99.90
6379;DHT22;3222;48.858;10.128;2024-01-06T10:03:51;5.00;99.90
6379;DHT22;3222;48.858;10.128;2024-01-06T10:06:17;5.00;99.90
6379;DHT22;3222;48.858;10.128;2024-01-06T10:08:47;5.00;99.90
6379;DHT22;3222;48.858;10.128;2024-01-06T10:11:13;5.10;99.90
6379;DHT22;3222;48.858;10.128;2024-01-06T10:13:39;5.00;99.90
6379;DHT22;3222;48.858;10.128;2024-01-06T10:16:06;4.90;99.90
6379;DHT22;3222;48.858;10.128;2024-01-06T10:18:32;4.90;99.90
6379;DHT22;3222;48.858;10.128;2024-01-06T10:20:58;4.90;99.90
6379;DHT22;3222;48.858;10.128;2024-01-06T10:23:26;5.00;99.90
6379;DHT22;3222;48.858;10.128;2024-01-06T10:25:55;5.10;99.90
6379;DHT22;3222;48.858;10.128;2024-01-06T10:28:22;5.00;99.90
6379;DHT22;3222;48.858;10.128;2024-01-06T10:30:55;5.00;99.90
6379;DHT22;3222;48.858;10.128;2024-01-06T10:33:21;4.90;99.90
6379;DHT22;3222;48.858;10.128;2024-01-06T10:35:49;4.90;99.90
6379;DHT22;3222;48.858;10.128;2024-01-06T10:38:15;5.00;99.90
6379;DHT22;3222;48.858;10.128;2024-01-06T10:41:02;5.10;99.90
6379;DHT22;3222;48.858;10.128;2024-01-06T10:43:33;5.00;99.90
6379;DHT22;3222;48.858;10.128;2024-01-06T10:46:05;5.00;99.90
6379;DHT22;3222;48.858;10.128;2024-01-06T10:48:36;5.00;99.90
6379;DHT22;3222;48.858;10.128;2024-01-06T10:51:04;5.00;99.90
6379;DHT22;3222;48.858;10.128;2024-01-06T10:53:33;5.10;99.90
6379;DHT22;3222;48.858;10.128;2024-01-06T10:56:01;4.90;99.90
6379;DHT22;3222;48.858;10.128;2024-01-06T10:58:27;5.00;99.90
6379;DHT22;3222;48.858;10.128;2024-01-06T11:00:56;5.00;99.90
6379;DHT22;3222;48.858;10.128;2024-01-06T11:03:22;5.00;99.90
6379;DHT22;3222;48.858;10.128;2024-01-06T11:05:49;5.00;99.90
6379;DHT22;3222;48.858;10.128;2024-01-06T11:08:17;5.00;99.90
6379;DHT22;3222;48.858;10.128;2024-01-06T11:10:43;5.00;99.90
6379;DHT22;3222;48.858;10.128;2024-01-06T11:13:12;5.10;99.90
6379;DHT22;3222;48.858;10.128;2024-01-06T11:15:46;5.00;99.90
6379;DHT22;3222;48.858;10.128;2024-01-06T11:21:21;5.20;99.90
6379;DHT22;3222;48.858;10.128;2024-01-06T11:24:11;5.10;99.90
6379;DHT22;3222;48.858;10.128;2024-01-06T11:26:39;5.10;99.90
6379;DHT22;3222;48.858;10.128;2024-01-06T11:29:08;5.20;99.90
6379;DHT22;3222;48.858;10.128;2024-01-06T11:31:34;5.20;99.90
6379;DHT22;3222;48.858;10.128;2024-01-06T11:34:17;5.10;99.90
6379;DHT22;3222;48.858;10.128;2024-01-06T11:36:50;5.20;99.90
6379;DHT22;3222;48.858;10.128;2024-01-06T11:39:35;5.10;99.90
6379;DHT22;3222;48.858;10.128;2024-01-06T11:42:02;5.00;99.90
6379;DHT22;3222;48.858;10.128;2024-01-06T11:44:28;5.00;99.90
6379;DHT22;3222;48.858;10.128;2024-01-06T11:46:56;5.20;99.90
6379;DHT22;3222;48.858;10.128;2024-01-06T11:49:26;5.10;99.90
6379;DHT22;3222;48.858;10.128;2024-01-06T11:51:56;5.00;99.90
6379;DHT22;3222;48.858;10.128;2024-01-06T11:54:22;5.10;99.90
6379;DHT22;3222;48.858;10.128;2024-01-06T11:56:48;5.10;99.90
6379;DHT22;3222;48.858;10.128;2024-01-06T11:59:14;5.00;99.90
6379;DHT22;3222;48.858;10.128;2024-01-06T12:01:40;5.00;99.90
6379;DHT22;3222;48.858;10.128;2024-01-06T12:04:06;5.10;99.90
6379;DHT22;3222;48.858;10.128;2024-01-06T12:06:33;5.20;99.90
6379;DHT22;3222;48.858;10.128;2024-01-06T12:09:10;5.20;99.90
6379;DHT22;3222;48.858;10.128;2024-01-06T12:11:39;5.10;99.90
6379;DHT22;3222;48.858;10.128;2024-01-06T12:14:05;5.10;99.90
6379;DHT22;3222;48.858;10.128;2024-01-06T12:16:32;5.10;99.90
6379;DHT22;3222;48.858;10.128;2024-01-06T12:18:59;5.20;99.90
6379;DHT22;3222;48.858;10.128;2024-01-06T12:21:29;5.10;99.90
6379;DHT22;3222;48.858;10.128;2024-01-06T12:24:17;5.20;99.90
6379;DHT22;3222;48.858;10.128;2024-01-06T12:26:46;5.20;99.90
6379;DHT22;3222;48.858;10.128;2024-01-06T12:29:16;5.10;99.90
6379;DHT22;3222;48.858;10.128;2024-01-06T12:31:43;5.10;99.90
6379;DHT22;3222;48.858;10.128;2024-01-06T12:34:10;5.10;99.90
6379;DHT22;3222;48.858;10.128;2024-01-06T12:36:40;5.20;99.90
6379;DHT22;3222;48.858;10.128;2024-01-06T12:39:12;5.10;99.90
6379;DHT22;3222;48.858;10.128;2024-01-06T12:41:42;5.10;99.90
6379;DHT22;3222;48.858;10.128;2024-01-06T12:44:08;5.00;99.90
6379;DHT22;3222;48.858;10.128;2024-01-06T12:46:35;5.10;99.90
6379;DHT22;3222;48.858;10.128;2024-01-06T12:49:00;5.00;99.90
6379;DHT22;3222;48.858;10.128;2024-01-06T12:51:26;5.00;99.90
6379;DHT22;3222;48.858;10.128;2024-01-06T12:53:52;4.90;99.90
6379;DHT22;3222;48.858;10.128;2024-01-06T12:56:17;4.80;99.90
6379;DHT22;3222;48.858;10.128;2024-01-06T12:58:43;4.90;99.90
6379;DHT22;3222;48.858;10.128;2024-01-06T13:01:10;4.90;99.90
6379;DHT22;3222;48.858;10.128;2024-01-06T13:03:36;5.00;99.90
6379;DHT22;3222;48.858;10.128;2024-01-06T13:06:02;5.00;99.90
6379;DHT22;3222;48.858;10.128;2024-01-06T13:08:28;5.00;99.90
6379;DHT22;3222;48.858;10.128;2024-01-06T13:10:56;5.00;99.90
6379;DHT22;3222;48.858;10.128;2024-01-06T13:13:22;4.90;99.90
6379;DHT22;3222;48.858;10.128;2024-01-06T13:15:48;5.00;99.90
6379;DHT22;3222;48.858;10.128;2024-01-06T13:18:14;5.20;99.90
6379;DHT22;3222;48.858;10.128;2024-01-06T13:20:42;5.10;99.90
6379;DHT22;3222;48.858;10.128;2024-01-06T13:23:09;5.10;99.90
6379;DHT22;3222;48.858;10.128;2024-01-06T13:25:37;5.00;99.90
6379;DHT22;3222;48.858;10.128;2024-01-06T13:28:07;4.90;99.90
6379;DHT22;3222;48.858;10.128;2024-01-06T13:30:33;5.00;99.90
6379;DHT22;3222;48.858;10.128;2024-01-06T13:32:59;5.00;99.90
6379;DHT22;3222;48.858;10.128;2024-01-06T13:35:25;5.10;99.90
6379;DHT22;3222;48.858;10.128;2024-01-06T13:37:52;5.00;99.90
6379;DHT22;3222;48.858;10.128;2024-01-06T13:40:18;4.90;99.90
6379;DHT22;3222;48.858;10.128;2024-01-06T13:42:50;5.00;99.90
6379;DHT22;3222;48.858;10.128;2024-01-06T13:45:17;4.90;99.90
6379;DHT22;3222;48.858;10.128;2024-01-06T13:47:43;4.90;99.90
6379;DHT22;3222;48.858;10.128;2024-01-06T13:50:15;4.80;99.90
6379;DHT22;3222;48.858;10.128;2024-01-06T13:52:42;4.90;99.90
6379;DHT22;3222;48.858;10.128;2024-01-06T13:55:08;5.00;99.90
6379;DHT22;3222;48.858;10.128;2024-01-06T13:57:34;4.90;99.90
6379;DHT22;3222;48.858;10.128;2024-01-06T14:00:00;5.10;99.90
6379;DHT22;3222;48.858;10.128;2024-01-06T14:02:26;5.00;99.90
6379;DHT22;3222;48.858;10.128;2024-01-06T14:04:52;4.90;99.90
6379;DHT22;3222;48.858;10.128;2024-01-06T14:07:18;4.90;99.90
6379;DHT22;3222;48.858;10.128;2024-01-06T14:09:45;4.80;99.90
6379;DHT22;3222;48.858;10.128;2024-01-06T14:12:11;4.80;99.90
6379;DHT22;3222;48.858;10.128;2024-01-06T14:14:37;4.90;99.90
6379;DHT22;3222;48.858;10.128;2024-01-06T14:17:03;4.90;99.90
6379;DHT22;3222;48.858;10.128;2024-01-06T14:19:28;4.90;99.90
6379;DHT22;3222;48.858;10.128;2024-01-06T14:21:54;5.00;99.90
6379;DHT22;3222;48.858;10.128;2024-01-06T14:24:20;4.90;99.90
6379;DHT22;3222;48.858;10.128;2024-01-06T14:26:53;4.90;99.90
6379;DHT22;3222;48.858;10.128;2024-01-06T14:29:20;4.80;99.90
6379;DHT22;3222;48.858;10.128;2024-01-06T14:31:46;4.90;99.90
6379;DHT22;3222;48.858;10.128;2024-01-06T14:34:12;4.90;99.90
6379;DHT22;3222;48.858;10.128;2024-01-06T14:36:38;5.00;99.90
6379;DHT22;3222;48.858;10.128;2024-01-06T14:39:05;5.00;99.90
6379;DHT22;3222;48.858;10.128;2024-01-06T14:41:32;5.00;99.90
6379;DHT22;3222;48.858;10.128;2024-01-06T14:43:58;5.00;99.90
6379;DHT22;3222;48.858;10.128;2024-01-06T14:46:24;5.00;99.90
6379;DHT22;3222;48.858;10.128;2024-01-06T14:48:50;4.90;99.90
6379;DHT22;3222;48.858;10.128;2024-01-06T14:51:17;4.90;99.90
6379;DHT22;3222;48.858;10.128;2024-01-06T14:53:43;5.00;99.90
6379;DHT22;3222;48.858;10.128;2024-01-06T14:56:09;5.00;99.90
6379;DHT22;3222;48.858;10.128;2024-01-06T14:58:34;5.00;99.90
6379;DHT22;3222;48.858;10.128;2024-01-06T15:01:03;5.00;99.90
6379;DHT22;3222;48.858;10.128;2024-01-06T15:03:31;5.00;99.90
6379;DHT22;3222;48.858;10.128;2024-01-06T15:05:56;4.90;99.90
6379;DHT22;3222;48.858;10.128;2024-01-06T15:08:22;4.90;99.90
6379;DHT22;3222;48.858;10.128;2024-01-06T15:10:48;4.90;99.90
6379;DHT22;3222;48.858;10.128;2024-01-06T15:13:13;4.80;99.90
6379;DHT22;3222;48.858;10.128;2024-01-06T15:15:39;4.80;99.90
6379;DHT22;3222;48.858;10.128;2024-01-06T15:18:05;4.80;99.90
6379;DHT22;3222;48.858;10.128;2024-01-06T15:20:31;4.90;99.90
6379;DHT22;3222;48.858;10.128;2024-01-06T15:22:56;4.90;99.90
6379;DHT22;3222;48.858;10.128;2024-01-06T15:25:22;4.80;99.90
6379;DHT22;3222;48.858;10.128;2024-01-06T15:27:48;4.80;99.90
6379;DHT22;3222;48.858;10.128;2024-01-06T15:30:13;4.70;99.90
6379;DHT22;3222;48.858;10.128;2024-01-06T15:32:42;4.70;99.90
6379;DHT22;3222;48.858;10.128;2024-01-06T15:35:08;4.80;99.90
6379;DHT22;3222;48.858;10.128;2024-01-06T15:37:35;4.80;99.90
6379;DHT22;3222;48.858;10.128;2024-01-06T15:40:02;4.80;99.90
6379;DHT22;3222;48.858;10.128;2024-01-06T15:42:28;4.80;99.90
6379;DHT22;3222;48.858;10.128;2024-01-06T15:44:54;4.90;99.90
6379;DHT22;3222;48.858;10.128;2024-01-06T15:47:20;4.80;99.90
6379;DHT22;3222;48.858;10.128;2024-01-06T15:49:46;4.80;99.90
6379;DHT22;3222;48.858;10.128;2024-01-06T15:52:12;4.80;99.90
6379;DHT22;3222;48.858;10.128;2024-01-06T15:54:37;4.80;99.90
6379;DHT22;3222;48.858;10.128;2024-01-06T15:57:03;4.70;99.90
6379;DHT22;3222;48.858;10.128;2024-01-06T15:59:29;4.80;99.90
6379;DHT22;3222;48.858;10.128;2024-01-06T16:01:55;4.80;99.90